Time;durP1;ratioP1;P1;durP2;ratioP2;P2;SDS_P1;SDS_P2;PMS_P1;PMS_P2;Temp;Humidity;BMP_temperature;BMP_pressure;BME280_temperature;BME280_humidity;BME280_pressure;Samples;Min_cycle;Max_cycle;Signal;HPM_P1;HPM_P2
2023/06/21 00:02:11;;;;;;;11.73;7.70;;;21.30;99.90;;;;;;5184307;28;20037;-72
2023/06/21 00:04:42;;;;;;;10.25;7.25;;;21.30;99.90;;;;;;5161566;28;20102;-71
2023/06/21 00:07:22;;;;;;;10.25;6.90;;;21.20;99.90;;;;;;5198753;28;20043;-71
2023/06/21 00:09:56;;;;;;;9.30;6.65;;;21.20;99.90;;;;;;5194161;28;20041;-70
2023/06/21 00:12:52;;;;;;;8.95;7.22;;;21.10;99.90;;;;;;5198246;28;20337;-71
2023/06/21 00:15:24;;;;;;;9.48;7.35;;;21.10;99.90;;;;;;5178964;28;20462;-71
2023/06/21 00:17:57;;;;;;;13.50;7.53;;;21.00;99.90;;;;;;5197602;28;20037;-71
2023/06/21 00:20:28;;;;;;;9.68;7.28;;;21.00;99.90;;;;;;5194554;28;20034;-71
2023/06/21 00:23:02;;;;;;;8.45;6.57;;;21.00;99.90;;;;;;5180134;28;20045;-71
2023/06/21 00:25:35;;;;;;;9.57;6.80;;;21.00;99.90;;;;;;5197497;28;20235;-72
2023/06/21 00:28:09;;;;;;;9.63;7.28;;;20.90;99.90;;;;;;5177848;28;20033;-72
2023/06/21 00:30:42;;;;;;;;;;;21.00;99.90;;;;;;5179636;28;20040;-72
2023/06/21 00:33:16;;;;;;;9.10;6.40;;;20.90;99.90;;;;;;5198056;28;20380;-71
2023/06/21 00:35:48;;;;;;;8.40;6.60;;;20.90;99.90;;;;;;5198495;28;20025;-72
2023/06/21 00:38:27;;;;;;;9.38;6.80;;;20.90;99.90;;;;;;5214161;28;20037;-72
2023/06/21 00:40:58;;;;;;;7.78;6.03;;;21.00;99.90;;;;;;5215229;28;20025;-72
2023/06/21 00:43:35;;;;;;;10.23;6.85;;;20.90;97.80;;;;;;5199801;28;20029;-71
2023/06/21 00:46:09;;;;;;;10.75;6.53;;;20.90;4.00;;;;;;5182641;28;20498;-71
2023/06/21 00:48:40;;;;;;;9.65;7.53;;;20.90;58.50;;;;;;5186991;28;20051;-72
2023/06/21 00:51:13;;;;;;;9.10;6.22;;;20.90;37.90;;;;;;5186899;28;20048;-71
2023/06/21 00:53:47;;;;;;;9.63;7.47;;;20.90;84.20;;;;;;5185425;28;20206;-72
2023/06/21 00:56:21;;;;;;;8.57;6.90;;;21.00;99.90;;;;;;5187069;28;20041;-71
2023/06/21 00:58:52;;;;;;;10.02;7.13;;;20.90;83.30;;;;;;5169135;28;20033;-72
2023/06/21 01:01:26;;;;;;;10.73;7.03;;;20.90;99.90;;;;;;5216081;23;20046;-85
2023/06/21 01:03:57;;;;;;;12.87;8.00;;;21.00;56.50;;;;;;5208194;28;20079;-85
2023/06/21 01:06:50;;;;;;;12.45;7.72;;;21.00;60.60;;;;;;5181896;28;20084;-84
2023/06/21 01:09:43;;;;;;;9.05;7.00;;;21.10;43.00;;;;;;5207905;28;20341;-84
2023/06/21 01:12:35;;;;;;;8.73;7.00;;;21.20;99.90;;;;;;5208348;28;20223;-84
2023/06/21 01:15:16;;;;;;;9.30;7.07;;;21.20;82.50;;;;;;5208193;28;20028;-85
2023/06/21 01:17:56;;;;;;;8.57;6.72;;;21.20;99.90;;;;;;5207421;28;20028;-85
2023/06/21 01:20:33;;;;;;;11.95;6.90;;;21.10;99.90;;;;;;5224381;28;20071;-86
2023/06/21 01:23:09;;;;;;;11.13;6.93;;;21.10;99.90;;;;;;5207442;28;20033;-86
2023/06/21 01:26:14;;;;;;;11.13;7.10;;;21.00;99.90;;;;;;5209069;28;20029;-85
2023/06/21 01:29:13;;;;;;;10.30;6.78;;;21.10;99.90;;;;;;5206906;28;20031;-85
2023/06/21 01:31:50;;;;;;;10.27;7.35;;;21.10;99.90;;;;;;5207676;28;20210;-85
2023/06/21 01:34:22;;;;;;;9.13;7.40;;;21.00;99.90;;;;;;5207664;28;20320;-86
2023/06/21 01:36:58;;;;;;;10.45;7.88;;;21.10;99.90;;;;;;5207372;28;20040;-85
2023/06/21 01:39:31;;;;;;;11.43;7.35;;;21.20;99.90;;;;;;5223964;28;20196;-85
2023/06/21 01:42:04;;;;;;;9.60;7.88;;;21.40;99.90;;;;;;5207482;28;20037;-85
2023/06/21 01:44:40;;;;;;;12.13;7.65;;;21.50;99.90;;;;;;5190816;28;20058;-85
2023/06/21 01:47:12;;;;;;;8.70;6.70;;;21.60;95.50;;;;;;5207660;28;20029;-86
2023/06/21 01:49:47;;;;;;;11.15;6.93;;;21.90;14.30;;;;;;5206927;28;20028;-84
2023/06/21 01:52:20;;;;;;;9.15;6.38;;;22.00;1.00;;;;;;5207096;28;20029;-84
2023/06/21 01:54:55;;;;;;;9.68;7.10;;;22.20;1.00;;;;;;5207101;28;20033;-85
2023/06/21 01:57:30;;;;;;;12.05;8.27;;;22.20;1.00;;;;;;5223173;28;20032;-84
2023/06/21 02:00:17;;;;;;;10.07;7.85;;;22.20;1.00;;;;;;5223175;28;20029;-85
2023/06/21 02:03:11;;;;;;;10.10;7.25;;;22.20;1.00;;;;;;5228767;28;20047;-85
2023/06/21 02:05:47;;;;;;;9.73;7.40;;;22.20;1.00;;;;;;5185950;28;20048;-85
2023/06/21 02:08:19;;;;;;;9.50;6.70;;;22.20;1.00;;;;;;5204254;28;20349;-86
2023/06/21 02:10:51;;;;;;;9.95;6.97;;;22.10;1.00;;;;;;5207161;28;20334;-86
2023/06/21 02:13:29;;;;;;;12.27;8.00;;;22.20;1.00;;;;;;5224453;28;20033;-86
2023/06/21 02:16:01;;;;;;;12.80;7.30;;;22.30;1.00;;;;;;5208112;28;20035;-85
2023/06/21 02:18:32;;;;;;;11.02;7.68;;;22.10;1.00;;;;;;5191658;28;20029;-85
2023/06/21 02:21:12;;;;;;;9.23;7.45;;;22.00;11.30;;;;;;5207313;28;20028;-85
2023/06/21 02:23:44;;;;;;;8.73;6.63;;;21.90;66.30;;;;;;5207733;28;20206;-87
2023/06/21 02:26:17;;;;;;;9.05;7.60;;;22.10;1.00;;;;;;5205974;28;20033;-86
2023/06/21 02:28:51;;;;;;;11.60;7.47;;;22.10;1.00;;;;;;5206479;28;20103;-85
2023/06/21 02:31:24;;;;;;;9.70;6.95;;;22.10;1.00;;;;;;5206797;28;20035;-87
2023/06/21 02:33:59;;;;;;;10.55;7.75;;;22.00;29.50;;;;;;5222878;28;20025;-86
2023/06/21 02:36:32;;;;;;;9.68;7.20;;;21.90;85.30;;;;;;5206527;28;20031;-86
2023/06/21 02:39:03;;;;;;;9.40;7.75;;;21.70;89.70;;;;;;5206440;28;20020;-85
2023/06/21 02:41:37;;;;;;;9.32;7.43;;;21.70;92.40;;;;;;5205482;28;20028;-85
2023/06/21 02:44:09;;;;;;;8.93;6.22;;;21.70;99.90;;;;;;5206288;28;20035;-85
2023/06/21 02:50:33;;;;;;;8.57;6.88;;;21.60;99.90;;;;;;5222767;28;20087;-86
2023/06/21 02:53:23;;;;;;;;;;;21.50;99.90;;;;;;5233488;28;20016;-86
2023/06/21 02:55:55;;;;;;;10.95;7.13;;;21.50;99.90;;;;;;5206003;28;19905;-85
2023/06/21 02:58:29;;;;;;;9.95;7.80;;;21.40;99.90;;;;;;5207215;28;20047;-86
2023/06/21 03:01:00;;;;;;;11.40;8.43;;;21.40;99.90;;;;;;5206446;28;20055;-85
2023/06/21 03:03:33;;;;;;;13.48;7.93;;;21.40;99.90;;;;;;5205758;28;20032;-84
2023/06/21 03:06:07;;;;;;;9.57;7.65;;;21.40;99.90;;;;;;5179663;28;20243;-87
2023/06/21 03:08:40;;;;;;;;;;;21.40;99.90;;;;;;5205148;28;20032;-85
2023/06/21 03:11:12;;;;;;;12.07;7.80;;;21.40;99.90;;;;;;5205326;28;19901;-85
2023/06/21 03:13:49;;;;;;;11.95;7.78;;;21.40;99.90;;;;;;5205811;28;20032;-86
2023/06/21 03:16:23;;;;;;;11.02;7.90;;;21.50;99.90;;;;;;5222422;28;20028;-86
2023/06/21 03:18:54;;;;;;;9.43;6.95;;;21.40;99.90;;;;;;5189744;28;20043;-87
2023/06/21 03:21:26;;;;;;;10.15;7.45;;;21.40;99.90;;;;;;5204489;28;20192;-85
2023/06/21 03:24:01;;;;;;;10.50;7.72;;;21.40;99.90;;;;;;5205219;28;20035;-85
2023/06/21 03:26:36;;;;;;;9.75;7.45;;;21.40;99.90;;;;;;5204965;28;20042;-86
2023/06/21 03:29:15;;;;;;;8.55;7.10;;;21.50;99.90;;;;;;5205311;28;20204;-86
2023/06/21 03:31:51;;;;;;;9.07;6.95;;;21.60;99.90;;;;;;5204939;28;20041;-85
2023/06/21 03:34:27;;;;;;;9.50;7.10;;;21.60;99.90;;;;;;5205560;28;20035;-86
2023/06/21 03:36:58;;;;;;;9.30;7.55;;;21.70;99.90;;;;;;5189287;28;20032;-85
2023/06/21 03:39:30;;;;;;;10.38;7.47;;;21.80;28.30;;;;;;5205259;28;20039;-86
2023/06/21 03:42:01;;;;;;;10.00;7.43;;;21.90;83.20;;;;;;5205627;28;20032;-87
2023/06/21 03:44:38;;;;;;;9.50;6.78;;;22.00;99.90;;;;;;5204730;28;20035;-85
2023/06/21 03:47:13;;;;;;;9.98;7.07;;;22.00;92.80;;;;;;5205192;28;20115;-86
2023/06/21 03:49:50;;;;;;;9.45;7.25;;;22.10;91.50;;;;;;5221645;28;20031;-86
2023/06/21 03:52:24;;;;;;;8.77;7.25;;;22.20;34.00;;;;;;5205102;28;20322;-85
2023/06/21 03:54:58;;;;;;;11.80;7.43;;;22.30;21.30;;;;;;5204943;28;20323;-85
2023/06/21 03:57:32;;;;;;;10.90;7.85;;;22.30;14.40;;;;;;5189357;28;20039;-85
2023/06/21 04:00:11;;;;;;;8.50;6.88;;;22.20;64.10;;;;;;5205218;28;20037;-85
2023/06/21 04:02:43;;;;;;;13.82;8.80;;;22.30;7.50;;;;;;5208681;28;20036;-85
2023/06/21 04:05:15;;;;;;;10.75;7.18;;;22.30;36.50;;;;;;5187593;28;20048;-85
2023/06/21 04:07:47;;;;;;;11.90;7.82;;;22.30;1.00;;;;;;5214341;28;20045;-85
2023/06/21 04:10:19;;;;;;;9.70;7.07;;;22.40;1.00;;;;;;5207739;28;20301;-85
2023/06/21 04:12:50;;;;;;;11.80;7.78;;;22.40;1.00;;;;;;5213192;28;20029;-83
2023/06/21 04:15:22;;;;;;;10.20;6.88;;;22.40;1.00;;;;;;5219586;28;20031;-86
2023/06/21 04:17:54;;;;;;;9.30;7.22;;;22.50;1.00;;;;;;5218934;28;20059;-86
2023/06/21 04:20:25;;;;;;;9.43;6.78;;;22.60;1.00;;;;;;5224571;28;20037;-85
2023/06/21 04:22:59;;;;;;;9.85;8.07;;;22.60;1.00;;;;;;5222975;28;20041;-86
2023/06/21 04:25:31;;;;;;;11.07;8.15;;;22.70;1.00;;;;;;5201913;28;20051;-87
2023/06/21 04:28:03;;;;;;;9.02;7.20;;;22.70;1.00;;;;;;5215409;28;20024;-86
2023/06/21 04:30:37;;;;;;;11.80;8.50;;;22.60;1.00;;;;;;5212880;28;20028;-86
2023/06/21 04:33:08;;;;;;;8.90;8.00;;;22.60;1.00;;;;;;5212460;28;20029;-87
2023/06/21 04:35:44;;;;;;;10.48;7.50;;;22.70;1.00;;;;;;5217417;28;20024;-88
2023/06/21 04:38:20;;;;;;;9.63;7.38;;;22.80;1.00;;;;;;5215161;28;20039;-89
2023/06/21 04:40:54;;;;;;;9.82;8.05;;;23.00;1.00;;;;;;5213803;28;20044;-84
2023/06/21 04:43:37;;;;;;;10.77;7.55;;;23.20;1.00;;;;;;5215801;28;20032;-88
2023/06/21 04:46:10;;;;;;;10.17;7.80;;;23.30;1.00;;;;;;5228692;28;20024;-85
2023/06/21 04:48:46;;;;;;;9.63;7.28;;;23.30;1.00;;;;;;5212690;28;20028;-86
2023/06/21 04:51:20;;;;;;;8.27;6.55;;;23.40;1.00;;;;;;5211929;28;20035;-86
2023/06/21 04:53:53;;;;;;;10.30;8.00;;;23.40;1.00;;;;;;5211703;28;20035;-85
2023/06/21 04:56:29;;;;;;;12.60;7.30;;;23.30;1.00;;;;;;5211473;28;20039;-85
2023/06/21 04:59:00;;;;;;;10.30;7.32;;;23.30;1.00;;;;;;5210973;28;20570;-85
2023/06/21 05:01:37;;;;;;;8.07;6.70;;;23.40;1.00;;;;;;5212672;28;20191;-85
2023/06/21 05:04:10;;;;;;;8.60;7.40;;;23.70;1.00;;;;;;5192863;28;20043;-85
2023/06/21 05:06:45;;;;;;;8.52;6.38;;;24.00;1.00;;;;;;5215368;28;20043;-85
2023/06/21 05:09:16;;;;;;;11.88;7.18;;;24.40;1.00;;;;;;5211140;28;20021;-85
2023/06/21 05:11:48;;;;;;;9.52;7.05;;;24.70;1.00;;;;;;5212283;28;20029;-86
2023/06/21 05:14:20;;;;;;;7.10;6.22;;;24.90;1.00;;;;;;5214417;28;20029;-85
2023/06/21 05:17:09;;;;;;;10.77;7.20;;;25.00;1.00;;;;;;5211709;28;20028;-86
2023/06/21 05:19:40;;;;;;;8.50;6.18;;;25.10;1.00;;;;;;5214676;28;20024;-87
2023/06/21 05:22:16;;;;;;;8.80;7.22;;;25.30;1.00;;;;;;5216172;28;20029;-87
2023/06/21 05:24:48;;;;;;;7.43;6.00;;;25.50;1.00;;;;;;5196842;28;20047;-87
2023/06/21 05:27:20;;;;;;;8.38;6.70;;;25.80;1.00;;;;;;5229049;28;20039;-85
2023/06/21 05:30:00;;;;;;;7.97;6.57;;;26.00;1.00;;;;;;5228261;28;20028;-86
2023/06/21 05:32:32;;;;;;;8.05;6.53;;;25.90;1.00;;;;;;5191464;28;20033;-86
2023/06/21 05:35:04;;;;;;;10.57;6.80;;;26.00;1.00;;;;;;5208589;28;20028;-85
2023/06/21 05:37:36;;;;;;;8.80;7.03;;;26.20;1.00;;;;;;5208712;28;20029;-85
2023/06/21 05:40:10;;;;;;;9.60;7.05;;;26.20;1.00;;;;;;5207710;28;20111;-86
2023/06/21 05:42:42;;;;;;;10.13;7.32;;;26.40;1.00;;;;;;5208238;28;20025;-87
2023/06/21 05:45:17;;;;;;;7.90;6.57;;;26.70;1.00;;;;;;5209531;28;20033;-87
2023/06/21 05:47:53;;;;;;;7.88;6.57;;;27.00;99.90;;;;;;5176765;28;20029;-86
2023/06/21 05:50:30;;;;;;;12.13;7.28;;;27.30;99.90;;;;;;5208684;28;20029;-87
2023/06/21 05:53:02;;;;;;;9.98;7.20;;;27.60;99.90;;;;;;5193647;28;20032;-87
2023/06/21 05:55:37;;;;;;;7.90;6.82;;;27.60;99.90;;;;;;5192775;28;20039;-86
2023/06/21 05:58:10;;;;;;;7.90;6.90;;;27.90;99.90;;;;;;5224855;28;20039;-87
2023/06/21 06:00:46;;;;;;;10.55;7.20;;;28.10;99.90;;;;;;5225342;28;20029;-88
2023/06/21 06:03:20;;;;;;;8.13;6.50;;;28.40;99.90;;;;;;5194632;28;20045;-87
2023/06/21 06:05:56;;;;;;;9.30;6.85;;;28.40;99.90;;;;;;5188126;28;20041;-86
2023/06/21 06:08:32;;;;;;;8.68;6.93;;;28.40;99.90;;;;;;5206858;28;20024;-86
2023/06/21 06:11:03;;;;;;;7.88;6.68;;;28.50;99.90;;;;;;5206696;28;20028;-85
2023/06/21 06:13:35;;;;;;;7.82;6.90;;;28.60;99.90;;;;;;5207176;28;20027;-86
2023/06/21 06:16:09;;;;;;;8.93;7.32;;;28.90;99.90;;;;;;5202593;28;20331;-87
2023/06/21 06:18:42;;;;;;;8.40;6.60;;;29.10;86.70;;;;;;5209941;28;20039;-84
2023/06/21 06:21:21;;;;;;;8.32;6.60;;;29.20;46.30;;;;;;5207659;28;20037;-86
2023/06/21 06:23:55;;;;;;;11.32;7.22;;;29.20;1.00;;;;;;5206103;28;20323;-86
2023/06/21 06:26:26;;;;;;;;;;;29.10;1.00;;;;;;5207681;28;20043;-85
2023/06/21 06:29:00;;;;;;;10.40;7.18;;;29.10;1.00;;;;;;5206751;28;19900;-86
2023/06/21 06:31:31;;;;;;;;;;;29.20;1.00;;;;;;5206987;28;20029;-85
2023/06/21 06:34:03;;;;;;;9.05;5.95;;;29.20;1.00;;;;;;5206575;28;20187;-86
2023/06/21 06:36:37;;;;;;;10.70;7.88;;;29.20;1.00;;;;;;5206398;28;20037;-86
2023/06/21 06:39:12;;;;;;;9.00;6.65;;;29.30;1.00;;;;;;5206398;28;20350;-87
2023/06/21 06:41:44;;;;;;;10.60;7.22;;;29.50;1.00;;;;;;5206820;28;20200;-84
2023/06/21 06:44:18;;;;;;;7.82;6.85;;;29.40;1.00;;;;;;5206719;28;20032;-86
2023/06/21 06:46:50;;;;;;;7.95;7.03;;;29.50;1.00;;;;;;5222583;28;20033;-86
2023/06/21 06:49:24;;;;;;;8.98;7.90;;;29.40;1.00;;;;;;5206611;28;20025;-84
2023/06/21 06:51:56;;;;;;;10.63;7.15;;;29.40;1.00;;;;;;5206090;28;20029;-86
2023/06/21 06:54:30;;;;;;;9.93;7.68;;;29.40;1.00;;;;;;5189274;28;20039;-86
2023/06/21 06:57:04;;;;;;;9.38;7.68;;;29.60;1.00;;;;;;5205841;28;20035;-88
2023/06/21 06:59:38;;;;;;;9.13;7.18;;;29.50;1.00;;;;;;5206148;28;20035;-85
2023/06/21 07:02:09;;;;;;;10.20;7.32;;;29.70;1.00;;;;;;5205522;28;20246;-85
2023/06/21 07:04:40;;;;;;;10.05;7.57;;;29.90;1.00;;;;;;5191995;28;20041;-84
2023/06/21 07:07:11;;;;;;;9.35;7.90;;;30.10;1.00;;;;;;5192763;28;20035;-87
2023/06/21 07:09:43;;;;;;;9.57;7.88;;;30.20;1.00;;;;;;5205649;28;20024;-86
2023/06/21 07:12:17;;;;;;;10.98;7.50;;;30.60;1.00;;;;;;5205792;28;20039;-86
2023/06/21 07:14:49;;;;;;;9.25;7.75;;;31.00;1.00;;;;;;5205481;28;20029;-86
2023/06/21 07:17:25;;;;;;;8.63;6.97;;;31.50;1.00;;;;;;5205685;28;20029;-85
2023/06/21 07:19:57;;;;;;;11.75;7.78;;;31.30;99.90;;;;;;5205711;28;20032;-85
2023/06/21 07:22:28;;;;;;;10.02;7.75;;;31.80;99.90;;;;;;5205591;28;20028;-85
2023/06/21 07:24:59;;;;;;;9.82;6.55;;;32.20;41.60;;;;;;5205710;28;20047;-84
2023/06/21 07:27:30;;;;;;;7.57;6.65;;;32.30;52.60;;;;;;5205963;28;20031;-84
2023/06/21 07:30:05;;;;;;;8.77;6.72;;;32.80;1.00;;;;;;5205795;28;20316;-85
2023/06/21 07:32:36;;;;;;;9.25;7.07;;;32.80;1.00;;;;;;5205219;28;20031;-86
2023/06/21 07:35:12;;;;;;;9.65;7.18;;;33.50;1.00;;;;;;5205261;28;20035;-86
2023/06/21 07:37:47;;;;;;;6.63;5.93;;;33.80;1.00;;;;;;5205635;28;20028;-87
2023/06/21 07:40:19;;;;;;;8.93;7.20;;;33.80;1.00;;;;;;5205270;28;20025;-87
2023/06/21 07:42:53;;;;;;;8.27;6.63;;;33.50;1.00;;;;;;5205135;28;20051;-86
2023/06/21 07:45:25;;;;;;;8.13;6.32;;;33.30;1.00;;;;;;5205104;28;20033;-85
2023/06/21 07:47:56;;;;;;;7.70;5.85;;;33.30;1.00;;;;;;5205203;28;20029;-86
2023/06/21 07:50:30;;;;;;;6.18;4.82;;;33.10;1.00;;;;;;5205219;28;20029;-86
2023/06/21 07:53:02;;;;;;;7.32;4.82;;;32.60;99.90;;;;;;5204514;28;20029;-85
2023/06/21 07:55:33;;;;;;;6.00;4.97;;;32.40;99.90;;;;;;5204487;28;20032;-85
2023/06/21 07:58:04;;;;;;;5.55;4.82;;;32.30;99.90;;;;;;5205044;28;20327;-85
2023/06/21 08:00:38;;;;;;;7.18;5.60;;;31.80;1.00;;;;;;5204977;28;20029;-86
2023/06/21 08:03:09;;;;;;;8.68;5.53;;;30.70;1.00;;;;;;5205005;28;20056;-86
2023/06/21 08:05:40;;;;;;;6.38;5.38;;;30.10;1.00;;;;;;5183535;28;20040;-86
2023/06/21 08:08:17;;;;;;;6.22;4.80;;;30.30;1.00;;;;;;5200282;28;20031;-86
2023/06/21 08:10:48;;;;;;;10.68;5.82;;;30.70;99.90;;;;;;5204939;28;20031;-85
2023/06/21 08:13:22;;;;;;;7.88;5.22;;;30.80;30.30;;;;;;5207765;28;20029;-86
2023/06/21 08:15:56;;;;;;;;;;;31.00;1.00;;;;;;5206224;28;20377;-85
2023/06/21 08:18:27;;;;;;;5.55;4.32;;;30.90;1.00;;;;;;5204872;28;19901;-85
2023/06/21 08:20:58;;;;;;;7.63;5.78;;;31.10;1.00;;;;;;5206071;28;20035;-86
2023/06/21 08:23:31;;;;;;;6.30;5.50;;;31.00;1.00;;;;;;5207299;28;20039;-86
2023/06/21 08:26:03;;;;;;;6.05;5.13;;;31.00;1.00;;;;;;5206153;28;20029;-86
2023/06/21 08:28:37;;;;;;;6.53;5.05;;;31.50;1.00;;;;;;5207012;28;20027;-87
2023/06/21 08:31:08;;;;;;;;;;;31.30;1.00;;;;;;5205029;28;20035;-86
2023/06/21 08:33:42;;;;;;;7.93;5.80;;;31.20;1.00;;;;;;5204983;28;19901;-86
2023/06/21 08:36:13;;;;;;;7.90;4.22;;;31.40;1.00;;;;;;5203827;28;20039;-86
2023/06/21 08:38:45;;;;;;;4.32;3.58;;;31.70;1.00;;;;;;5204770;28;20237;-85
2023/06/21 08:41:17;;;;;;;10.63;3.58;;;32.10;1.00;;;;;;5221319;28;20035;-86
2023/06/21 08:43:49;;;;;;;4.60;4.03;;;32.40;1.00;;;;;;5204625;28;20039;-85
2023/06/21 08:46:25;;;;;;;7.50;3.90;;;32.90;99.90;;;;;;5205135;28;20029;-89
2023/06/21 08:48:59;;;;;;;9.77;3.42;;;33.00;99.90;;;;;;5188331;28;20033;-87
2023/06/21 08:51:38;;;;;;;4.75;3.40;;;33.10;99.90;;;;;;5205077;28;20341;-86
2023/06/21 08:54:13;;;;;;;7.90;4.60;;;33.80;99.90;;;;;;5204556;28;20310;-86
2023/06/21 08:56:51;;;;;;;3.95;3.47;;;33.30;99.90;;;;;;5206328;28;20029;-87
2023/06/21 08:59:41;;;;;;;5.30;3.58;;;32.50;99.90;;;;;;5205007;28;20311;-86
2023/06/21 09:02:38;;;;;;;4.63;2.83;;;31.90;99.70;;;;;;5210751;28;20051;-87
2023/06/21 09:05:26;;;;;;;5.22;3.17;;;32.10;92.30;;;;;;5191441;28;20373;-86
2023/06/21 09:08:01;;;;;;;5.20;3.50;;;32.10;16.20;;;;;;5209229;28;20029;-86
2023/06/21 09:10:34;;;;;;;4.53;3.72;;;32.80;93.00;;;;;;5215095;28;20035;-87
2023/06/21 09:13:06;;;;;;;3.80;3.38;;;33.30;1.00;;;;;;5215498;28;20029;-86
2023/06/21 09:15:40;;;;;;;5.20;3.85;;;33.30;1.00;;;;;;5215764;28;20025;-87
2023/06/21 09:18:12;;;;;;;4.47;3.50;;;32.70;1.00;;;;;;5231964;28;20329;-87
2023/06/21 09:20:49;;;;;;;5.57;3.65;;;32.90;1.00;;;;;;5215665;28;20039;-87
2023/06/21 09:23:21;;;;;;;5.35;3.50;;;33.50;1.00;;;;;;5215103;28;20029;-86
2023/06/21 09:25:55;;;;;;;6.68;3.63;;;33.70;1.00;;;;;;5214693;28;20040;-85
2023/06/21 09:28:26;;;;;;;3.50;3.20;;;33.90;1.00;;;;;;5212011;28;20035;-86
2023/06/21 09:30:59;;;;;;;4.78;4.18;;;34.20;1.00;;;;;;5213426;28;20031;-88
2023/06/21 09:33:36;;;;;;;4.20;2.90;;;34.20;1.00;;;;;;5231069;28;20031;-86
2023/06/21 09:36:08;;;;;;;3.47;3.17;;;34.60;1.00;;;;;;5212352;28;20032;-88
2023/06/21 09:38:42;;;;;;;5.45;3.03;;;34.90;1.00;;;;;;5212560;28;20035;-86
2023/06/21 09:41:13;;;;;;;;;;;35.00;1.00;;;;;;5211908;28;20059;-88
2023/06/21 09:43:50;;;;;;;4.85;2.97;;;34.80;1.00;;;;;;5210096;28;19900;-86
2023/06/21 09:46:21;;;;;;;4.75;2.60;;;34.80;1.00;;;;;;5193769;28;20039;-87
2023/06/21 09:49:07;;;;;;;3.28;2.50;;;35.10;1.00;;;;;;5209571;28;20051;-87
2023/06/21 09:51:43;;;;;;;5.32;3.92;;;35.40;1.00;;;;;;5208504;28;20037;-85
2023/06/21 09:54:14;;;;;;;5.55;3.60;;;35.70;99.90;;;;;;5208212;28;20028;-86
2023/06/21 09:56:45;;;;;;;4.63;3.42;;;35.30;99.90;;;;;;5191453;28;20037;-85
2023/06/21 09:59:19;;;;;;;5.10;3.00;;;35.60;99.90;;;;;;5208918;28;20033;-86
2023/06/21 10:01:59;;;;;;;4.28;2.90;;;35.80;99.90;;;;;;5208483;28;20040;-88
2023/06/21 10:04:42;;;;;;;6.30;2.83;;;35.40;99.90;;;;;;5178993;28;20126;-88
2023/06/21 10:07:16;;;;;;;2.58;2.08;;;35.20;99.90;;;;;;5199130;28;20033;-89
2023/06/21 10:09:58;;;;;;;3.05;2.78;;;34.90;99.90;;;;;;5235810;28;20037;-88
2023/06/21 10:12:34;;;;;;;5.32;2.35;;;35.50;99.90;;;;;;5208292;28;20318;-88
2023/06/21 10:15:09;;;;;;;2.95;2.30;;;35.90;99.90;;;;;;5208104;28;20029;-88
2023/06/21 10:17:45;;;;;;;5.45;3.17;;;36.00;99.90;;;;;;5193499;28;20047;-88
2023/06/21 10:20:25;;;;;;;7.88;2.35;;;35.60;99.90;;;;;;5226588;28;20025;-88
2023/06/21 10:23:04;;;;;;;11.68;3.28;;;36.40;99.90;;;;;;5225488;28;20025;-89
2023/06/21 10:25:38;;;;;;;3.15;2.47;;;37.50;99.90;;;;;;5207243;28;20043;-87
2023/06/21 10:28:20;;;;;;;5.53;3.28;;;37.30;99.90;;;;;;5191804;28;20315;-87
2023/06/21 10:30:56;;;;;;;2.83;2.28;;;37.90;99.90;;;;;;5206941;28;20024;-86
2023/06/21 10:33:35;;;;;;;5.57;2.97;;;38.30;99.90;;;;;;5224060;28;20031;-88
2023/06/21 10:36:28;;;;;;;5.95;3.78;;;39.30;99.90;;;;;;5207652;28;20032;-87
2023/06/21 10:39:08;;;;;;;4.00;3.03;;;40.10;99.90;;;;;;5206440;28;20200;-89
2023/06/21 10:41:42;;;;;;;4.75;2.70;;;40.80;99.90;;;;;;5223656;28;20029;-88
2023/06/21 10:44:16;;;;;;;12.43;3.57;;;38.90;65.80;;;;;;5207160;28;20039;-88
2023/06/21 10:46:48;;;;;;;2.60;2.40;;;39.50;1.00;;;;;;5206968;28;20028;-87
2023/06/21 10:49:23;;;;;;;5.07;2.40;;;40.40;1.00;;;;;;5207098;28;20031;-88
2023/06/21 10:51:57;;;;;;;4.95;2.40;;;41.50;21.90;;;;;;5207124;28;20035;-88
2023/06/21 10:54:32;;;;;;;4.38;3.13;;;42.50;1.00;;;;;;5206375;28;20031;-87
2023/06/21 10:57:08;;;;;;;4.63;2.80;;;43.40;1.00;;;;;;5204266;28;20033;-85
2023/06/21 10:59:44;;;;;;;3.28;2.60;;;43.00;1.00;;;;;;5190054;28;20037;-87
2023/06/21 11:02:16;;;;;;;3.55;2.78;;;43.70;1.00;;;;;;5206249;28;20044;-88
2023/06/21 11:05:18;;;;;;;3.33;2.97;;;43.60;1.00;;;;;;5190482;28;20362;-87
2023/06/21 11:07:54;;;;;;;3.90;2.13;;;44.70;1.00;;;;;;5200117;28;20036;-89
2023/06/21 11:10:49;;;;;;;4.60;2.83;;;45.60;1.00;;;;;;5207978;28;20035;-88
2023/06/21 11:13:36;;;;;;;7.85;3.10;;;45.70;1.00;;;;;;5207351;28;20031;-87
2023/06/21 11:16:13;;;;;;;3.42;2.72;;;45.40;1.00;;;;;;5208064;28;20039;-87
2023/06/21 11:18:56;;;;;;;5.25;2.70;;;46.30;1.00;;;;;;5209666;28;20039;-88
2023/06/21 11:21:46;;;;;;;3.97;2.95;;;46.40;1.00;;;;;;5216365;28;20033;-86
2023/06/21 11:24:22;;;;;;;3.50;2.90;;;45.80;1.00;;;;;;5209893;28;20025;-88
2023/06/21 11:26:58;;;;;;;3.13;2.83;;;45.70;1.00;;;;;;5208370;28;20033;-89
2023/06/21 11:29:34;;;;;;;4.63;2.80;;;46.20;1.00;;;;;;5224380;28;20029;-88
2023/06/21 11:32:13;;;;;;;4.50;2.80;;;46.20;1.00;;;;;;5207544;28;20031;-88
2023/06/21 11:34:57;;;;;;;2.95;2.65;;;45.60;1.00;;;;;;5206293;28;20332;-87
2023/06/21 11:37:44;;;;;;;6.80;3.20;;;44.60;1.00;;;;;;5206318;28;20032;-87
2023/06/21 11:40:25;;;;;;;4.93;3.13;;;44.80;1.00;;;;;;5206069;28;20230;-87
2023/06/21 11:43:00;;;;;;;4.50;3.17;;;45.70;1.00;;;;;;5206783;28;20039;-90
2023/06/21 11:45:35;;;;;;;6.47;3.60;;;46.60;1.00;;;;;;5206630;28;20035;-87
2023/06/21 11:48:12;;;;;;;4.00;3.38;;;46.80;1.00;;;;;;5205998;28;20039;-87
2023/06/21 11:50:46;;;;;;;3.78;3.10;;;46.60;1.00;;;;;;5205484;28;20035;-88
2023/06/21 11:53:40;;;;;;;3.90;3.17;;;46.50;1.00;;;;;;5205564;28;20036;-88
2023/06/21 11:56:16;;;;;;;3.55;3.10;;;46.90;1.00;;;;;;5206539;28;20322;-88
2023/06/21 11:58:50;;;;;;;5.60;2.88;;;46.70;99.90;;;;;;5205579;28;20029;-89
2023/06/21 12:01:21;;;;;;;4.55;3.60;;;47.30;1.00;;;;;;5207177;28;20043;-87
2023/06/21 12:03:57;;;;;;;5.97;3.15;;;47.80;99.90;;;;;;5207160;28;20032;-88
2023/06/21 12:06:29;;;;;;;5.35;3.35;;;48.30;1.00;;;;;;5180119;28;20328;-87
2023/06/21 12:09:03;;;;;;;3.85;3.17;;;48.00;1.00;;;;;;5206842;28;20033;-89
2023/06/21 12:11:42;;;;;;;4.88;3.20;;;47.40;99.90;;;;;;5224304;28;20043;-86
2023/06/21 12:14:16;;;;;;;4.32;3.25;;;47.40;99.90;;;;;;5222829;28;20025;-87
2023/06/21 12:16:49;;;;;;;;;;;47.10;99.90;;;;;;5206939;28;20033;-88
2023/06/21 12:19:25;;;;;;;;;;;47.30;99.90;;;;;;5206611;28;19901;-88
2023/06/21 12:22:02;;;;;;;3.72;3.03;;;47.30;99.90;;;;;;5206776;28;19901;-89
2023/06/21 12:24:38;;;;;;;4.32;3.20;;;47.60;99.90;;;;;;5204848;28;20319;-88
2023/06/21 12:27:17;;;;;;;3.45;3.10;;;47.50;99.90;;;;;;5205271;28;20033;-88
2023/06/21 12:29:52;;;;;;;4.95;3.00;;;46.90;12.00;;;;;;5206990;28;20311;-88
2023/06/21 12:32:23;;;;;;;5.70;3.47;;;47.40;99.90;;;;;;5206706;28;20033;-87
2023/06/21 12:35:03;;;;;;;4.40;2.80;;;48.30;37.80;;;;;;5214566;28;20032;-88
2023/06/21 12:37:35;;;;;;;4.45;2.92;;;47.70;1.00;;;;;;5218871;28;20045;-86
2023/06/21 12:40:07;;;;;;;4.85;3.25;;;47.10;1.00;;;;;;5209307;28;20033;-88
2023/06/21 12:42:38;;;;;;;4.50;3.60;;;46.20;1.00;;;;;;5211178;28;20032;-88
2023/06/21 12:45:12;;;;;;;4.50;2.80;;;47.30;1.00;;;;;;5211373;28;20028;-88
2023/06/21 12:47:47;;;;;;;3.47;3.17;;;48.10;1.00;;;;;;5209927;28;20033;-86
2023/06/21 12:50:23;;;;;;;5.20;3.30;;;47.70;1.00;;;;;;5227883;28;20031;-88
2023/06/21 12:53:01;;;;;;;7.35;3.50;;;47.20;1.00;;;;;;5195043;28;20039;-89
2023/06/21 12:55:33;;;;;;;4.55;3.28;;;48.30;1.00;;;;;;5211344;28;20028;-88
2023/06/21 12:58:06;;;;;;;4.35;3.15;;;47.90;1.00;;;;;;5210857;28;20033;-86
2023/06/21 13:00:38;;;;;;;5.00;3.30;;;47.20;1.00;;;;;;5210582;28;20028;-87
2023/06/21 13:03:09;;;;;;;4.20;3.22;;;47.10;1.00;;;;;;5209865;28;20066;-87
2023/06/21 13:05:46;;;;;;;4.20;3.15;;;46.20;1.00;;;;;;5188440;28;20044;-87
2023/06/21 13:08:21;;;;;;;6.30;3.40;;;45.80;1.00;;;;;;5208362;22;20040;-72
2023/06/21 13:10:58;;;;;;;4.75;3.33;;;46.40;1.00;;;;;;5227045;28;20051;-72
2023/06/21 13:13:30;;;;;;;3.42;2.72;;;47.40;1.00;;;;;;5210522;28;20406;-71
2023/06/21 13:16:03;;;;;;;7.30;3.53;;;48.10;1.00;;;;;;5224970;28;20028;-71
2023/06/21 13:18:34;;;;;;;4.60;3.25;;;49.20;1.00;;;;;;5226095;28;20020;-71
2023/06/21 13:21:06;;;;;;;4.03;3.20;;;48.80;1.00;;;;;;5211890;28;20505;-71
2023/06/21 13:23:38;;;;;;;4.87;3.40;;;47.90;1.00;;;;;;5227653;28;20029;-71
2023/06/21 13:26:14;;;;;;;5.40;2.83;;;46.90;1.00;;;;;;5227528;28;20348;-71
2023/06/21 13:28:50;;;;;;;3.33;2.90;;;46.80;1.00;;;;;;5227051;28;20421;-72
2023/06/21 13:31:21;;;;;;;5.18;3.25;;;46.20;1.00;;;;;;5231580;28;20035;-71
2023/06/21 13:33:55;;;;;;;4.68;3.22;;;46.00;1.00;;;;;;5247794;28;20022;-70
2023/06/21 13:36:29;;;;;;;5.82;2.90;;;46.60;1.00;;;;;;5248715;28;20032;-71
2023/06/21 13:39:03;;;;;;;5.00;3.33;;;46.20;1.00;;;;;;5247321;28;20031;-71